Time;durP1;ratioP1;P1;durP2;ratioP2;P2;SDS_P1;SDS_P2;PMS_P1;PMS_P2;Temp;Humidity;BMP_temperature;BMP_pressure;BME280_temperature;BME280_humidity;BME280_pressure;Samples;Min_cycle;Max_cycle;Signal;HPM_P1;HPM_P2
2023/06/26 00:00:07;;;;;;;7.68;4.15;;;;;;;21.54;68.76;101185.97;5056364;28;20076;-66
2023/06/26 00:02:34;;;;;;;11.60;4.30;;;;;;;21.81;68.44;101175.63;5061130;28;20048;-66
2023/06/26 00:05:02;;;;;;;10.27;4.40;;;;;;;;;;5062079;28;20049;-66
2023/06/26 00:07:30;;;;;;;9.50;3.35;;;;;;;21.61;68.04;101183.28;5053801;28;20045;-66
2023/06/26 00:09:58;;;;;;;7.97;3.95;;;;;;;21.65;68.11;101188.97;5059743;28;20061;-65
2023/06/26 00:12:26;;;;;;;9.57;4.07;;;;;;;21.52;68.47;101193.13;5058939;28;20049;-66
2023/06/26 00:14:54;;;;;;;12.20;4.10;;;;;;;21.56;69.14;101191.22;5053297;28;20045;-66
2023/06/26 00:17:22;;;;;;;8.02;3.80;;;;;;;21.53;68.71;101195.56;5063119;28;20052;-65
2023/06/26 00:19:50;;;;;;;8.18;3.80;;;;;;;21.24;69.09;101187.88;5061507;28;20060;-66
2023/06/26 00:22:18;;;;;;;9.38;3.40;;;;;;;21.27;67.93;101189.13;5066239;28;20049;-67
2023/06/26 00:24:45;;;;;;;8.30;3.42;;;;;;;21.00;67.70;101199.44;5069562;28;20059;-66
2023/06/26 00:27:13;;;;;;;9.93;3.25;;;;;;;21.17;67.61;101194.16;5057080;28;20045;-66
2023/06/26 00:29:40;;;;;;;7.95;3.05;;;;;;;21.29;66.46;101195.16;5060174;28;20044;-66
2023/06/26 00:32:08;;;;;;;8.65;3.45;;;;;;;21.47;64.91;101201.88;5053961;28;20040;-66
2023/06/26 00:34:35;;;;;;;8.48;3.55;;;;;;;21.03;67.36;101196.69;5057317;28;20049;-65
2023/06/26 00:37:03;;;;;;;9.75;3.10;;;;;;;21.23;66.22;101197.47;5051096;28;20052;-66
2023/06/26 00:39:31;;;;;;;10.70;3.40;;;;;;;21.37;65.40;101208.09;5062078;28;20119;-65
2023/06/26 00:41:58;;;;;;;6.97;2.92;;;;;;;20.89;67.70;101204.81;5074687;28;20061;-66
2023/06/26 00:44:25;;;;;;;6.88;2.85;;;;;;;21.17;66.56;101216.56;5068721;28;20055;-65
2023/06/26 00:46:53;;;;;;;9.25;3.15;;;;;;;20.81;67.88;101211.47;5069797;28;20053;-65
2023/06/26 00:49:20;;;;;;;8.90;3.20;;;;;;;20.81;68.10;101210.63;5072230;28;20396;-65
2023/06/26 00:51:48;;;;;;;8.95;3.28;;;;;;;20.83;67.54;101206.31;5074652;28;20049;-65
2023/06/26 00:54:19;;;;;;;7.43;3.20;;;;;;;20.75;67.65;101226.94;5069422;28;20056;-65
2023/06/26 00:56:48;;;;;;;9.27;3.22;;;;;;;20.66;68.82;101209.53;5042207;28;20048;-65
2023/06/26 00:59:16;;;;;;;9.52;3.08;;;;;;;20.47;68.87;101214.34;5074035;28;20072;-66
2023/06/26 01:01:43;;;;;;;10.77;3.53;;;;;;;20.36;69.61;101222.53;5062123;28;20052;-65
2023/06/26 01:04:17;;;;;;;9.23;3.55;;;;;;;20.25;70.54;101231.84;5055068;28;20053;-65
2023/06/26 01:06:49;;;;;;;6.90;3.25;;;;;;;20.45;70.79;101219.50;5052985;28;20053;-65
2023/06/26 01:09:18;;;;;;;7.32;3.10;;;;;;;20.66;69.59;101219.94;5059302;28;20049;-67
2023/06/26 01:11:46;;;;;;;10.47;3.80;;;;;;;20.79;68.77;101229.78;5066601;28;20053;-65
2023/06/26 01:14:14;;;;;;;10.40;3.83;;;;;;;20.57;69.12;101228.56;5056317;28;20488;-66
2023/06/26 01:16:47;;;;;;;11.75;4.20;;;;;;;20.31;71.01;101230.38;5068739;28;20503;-65
2023/06/26 01:19:28;;;;;;;9.82;3.60;;;;;;;20.00;72.08;101232.06;5058127;28;20051;-64
2023/06/26 01:22:15;;;;;;;9.07;3.33;;;;;;;20.37;70.93;101234.50;5067091;28;20049;-65
2023/06/26 01:25:09;;;;;;;9.32;3.58;;;;;;;20.54;70.61;101236.91;5054057;28;20040;-64
2023/06/26 01:27:37;;;;;;;10.38;3.20;;;;;;;20.28;71.15;101248.72;5055031;28;20083;-65
2023/06/26 01:30:05;;;;;;;9.82;3.63;;;;;;;20.15;72.10;101250.78;5064263;28;20072;-65
2023/06/26 01:32:36;;;;;;;9.50;3.45;;;;;;;20.22;71.92;101264.19;5062253;28;20049;-66
2023/06/26 01:35:06;;;;;;;10.43;3.53;;;;;;;19.98;73.08;101255.97;5052973;28;20057;-66
2023/06/26 01:37:33;;;;;;;;;;;;;;;20.00;73.18;101273.19;5054027;28;20052;-66
2023/06/26 01:40:05;;;;;;;11.98;3.42;;;;;;;19.88;74.06;101262.13;5052212;28;19932;-64
2023/06/26 01:42:33;;;;;;;10.65;3.60;;;;;;;19.85;74.68;101260.06;5054834;28;20049;-65
2023/06/26 01:45:12;;;;;;;10.60;3.58;;;;;;;20.26;72.17;101273.44;5066601;28;20056;-65
2023/06/26 01:47:41;;;;;;;9.85;3.65;;;;;;;20.25;73.34;101271.81;5056454;28;20060;-65
2023/06/26 01:50:12;;;;;;;7.83;3.27;;;;;;;20.41;71.31;101283.78;5043425;28;20045;-65
2023/06/26 01:52:53;;;;;;;6.63;2.90;;;;;;;20.46;70.32;101289.09;5059704;28;20064;-61
2023/06/26 01:55:20;;;;;;;;;;;;;;;20.55;69.80;101286.91;5049529;28;20118;-61
2023/06/26 01:57:48;;;;;;;9.93;3.22;;;;;;;20.31;69.51;101287.13;5056406;28;19933;-63
2023/06/26 02:00:20;;;;;;;12.30;3.40;;;;;;;20.05;69.67;101290.50;5057195;28;20052;-61
2023/06/26 02:02:47;;;;;;;16.00;3.28;;;;;;;19.95;69.73;101296.66;5051558;28;20107;-61
2023/06/26 02:05:15;;;;;;;12.85;3.30;;;;;;;20.00;70.10;101289.97;5056091;28;20047;-62
2023/06/26 02:07:43;;;;;;;9.52;2.78;;;;;;;19.79;71.01;101300.63;5052599;28;20084;-62
2023/06/26 02:10:11;;;;;;;9.85;3.15;;;;;;;19.67;70.46;101306.31;5056904;28;20063;-62
2023/06/26 02:12:39;;;;;;;11.05;2.75;;;;;;;19.38;71.74;101315.94;5057553;28;20056;-62
2023/06/26 02:15:07;;;;;;;18.98;3.85;;;;;;;19.42;71.72;101305.66;5043096;28;20037;-63
2023/06/26 02:17:35;;;;;;;10.32;2.97;;;;;;;19.69;70.92;101313.19;5063043;28;20528;-62
2023/06/26 02:20:02;;;;;;;10.98;3.20;;;;;;;19.50;70.99;101318.66;5053107;28;20044;-62
2023/06/26 02:22:30;;;;;;;16.27;2.85;;;;;;;19.53;70.71;101325.50;5066143;28;20064;-61
2023/06/26 02:24:57;;;;;;;10.13;2.85;;;;;;;19.65;70.63;101317.84;5056739;28;20112;-62
2023/06/26 02:27:25;;;;;;;11.85;2.83;;;;;;;19.33;71.65;101327.38;5064123;28;20063;-61
2023/06/26 02:29:53;;;;;;;12.20;2.88;;;;;;;19.38;71.29;101323.50;5063574;28;20049;-62
2023/06/26 02:32:20;;;;;;;10.93;2.78;;;;;;;19.67;70.17;101309.94;5056357;28;20515;-62
2023/06/26 02:34:53;;;;;;;14.18;2.45;;;;;;;19.69;68.92;101310.38;5052966;28;20068;-62
2023/06/26 02:37:21;;;;;;;13.25;2.75;;;;;;;19.38;70.77;101329.09;5052916;28;20052;-63
2023/06/26 02:39:48;;;;;;;13.10;2.92;;;;;;;19.24;70.39;101332.28;5059506;28;20045;-62
2023/06/26 02:42:16;;;;;;;11.38;2.70;;;;;;;19.52;70.52;101327.50;5070968;28;20060;-62
2023/06/26 02:44:44;;;;;;;20.58;3.47;;;;;;;19.51;69.03;101339.84;5037794;28;20048;-62
2023/06/26 02:47:11;;;;;;;12.90;2.53;;;;;;;18.69;72.20;101346.22;5051883;28;20037;-62
2023/06/26 02:49:42;;;;;;;12.10;2.35;;;;;;;18.66;73.41;101338.53;5035742;28;20049;-62
2023/06/26 02:52:10;;;;;;;10.68;2.70;;;;;;;18.72;72.70;101342.72;5051662;28;20388;-62
2023/06/26 02:54:37;;;;;;;12.20;2.83;;;;;;;18.67;73.12;101346.56;5069818;28;20053;-62
2023/06/26 02:57:05;;;;;;;11.98;2.47;;;;;;;18.66;73.75;101344.94;5061545;28;20044;-62
2023/06/26 02:59:34;;;;;;;15.32;2.50;;;;;;;18.84;73.71;101351.06;5071193;28;20063;-62
2023/06/26 03:02:01;;;;;;;8.63;2.42;;;;;;;19.28;72.32;101344.38;5071242;28;20052;-62
2023/06/26 03:04:37;;;;;;;16.58;3.03;;;;;;;18.98;72.52;101357.88;5050492;28;20048;-62
2023/06/26 03:07:08;;;;;;;10.60;2.88;;;;;;;19.40;71.82;101349.09;5072175;28;20052;-61
2023/06/26 03:09:37;;;;;;;12.40;3.00;;;;;;;19.47;70.10;101361.31;5052986;28;20536;-62
2023/06/26 03:12:05;;;;;;;18.15;3.30;;;;;;;19.15;72.21;101361.53;5062479;28;20055;-62
2023/06/26 03:14:34;;;;;;;12.25;2.70;;;;;;;19.08;72.43;101362.13;5060967;28;20049;-61
2023/06/26 03:17:03;;;;;;;9.43;2.58;;;;;;;19.41;71.56;101364.69;5069781;28;20587;-62
2023/06/26 03:19:33;;;;;;;11.82;3.17;;;;;;;19.55;70.40;101368.69;5053745;28;20067;-63
2023/06/26 03:22:26;;;;;;;14.55;3.10;;;;;;;18.90;73.95;101369.16;5058208;28;20551;-63
2023/06/26 03:24:55;;;;;;;13.35;2.80;;;;;;;18.69;75.15;101372.13;5057663;28;20061;-62
2023/06/26 03:27:22;;;;;;;13.88;3.03;;;;;;;18.83;73.72;101375.34;5073086;28;20040;-62
2023/06/26 03:29:50;;;;;;;12.63;2.97;;;;;;;18.87;74.67;101364.31;5036806;28;20055;-63
2023/06/26 03:32:18;;;;;;;12.68;2.50;;;;;;;19.23;73.32;101364.16;5069165;28;20055;-62
2023/06/26 03:34:46;;;;;;;15.00;2.70;;;;;;;19.54;71.95;101366.28;5056175;28;20059;-61
2023/06/26 03:37:13;;;;;;;14.02;2.92;;;;;;;19.73;70.56;101361.63;5062434;28;20041;-62
2023/06/26 03:39:41;;;;;;;13.48;2.88;;;;;;;19.41;71.60;101367.50;5064731;28;20052;-61
2023/06/26 03:42:08;;;;;;;11.65;3.13;;;;;;;19.48;71.36;101370.47;5044648;28;20053;-63
2023/06/26 03:44:35;;;;;;;14.52;3.22;;;;;;;19.50;71.86;101382.13;5064242;28;20155;-62
2023/06/26 03:47:03;;;;;;;12.18;3.42;;;;;;;19.60;70.99;101376.81;5056425;28;20041;-62
2023/06/26 03:49:31;;;;;;;12.38;2.95;;;;;;;19.88;70.95;101382.34;5055787;28;20061;-61
2023/06/26 03:51:58;;;;;;;11.90;2.90;;;;;;;19.88;70.72;101388.75;5062645;28;20055;-62
2023/06/26 03:54:26;;;;;;;14.75;3.35;;;;;;;19.84;70.54;101393.44;5065034;28;20468;-61
2023/06/26 03:56:53;;;;;;;15.88;2.90;;;;;;;20.14;69.55;101396.59;5061020;28;20045;-62
2023/06/26 03:59:21;;;;;;;11.23;2.70;;;;;;;20.36;68.41;101398.81;5026597;28;20056;-63
2023/06/26 04:01:48;;;;;;;15.70;3.20;;;;;;;19.78;70.69;101406.06;5039937;28;20048;-62
2023/06/26 04:04:19;;;;;;;21.27;3.50;;;;;;;19.20;72.00;101415.16;5064809;28;20053;-63
2023/06/26 04:06:48;;;;;;;11.10;3.47;;;;;;;19.22;73.15;101418.41;5055627;28;20067;-61
2023/06/26 04:09:15;;;;;;;16.70;3.47;;;;;;;19.38;72.99;101418.50;5066019;28;20519;-61
2023/06/26 04:11:44;;;;;;;19.67;4.45;;;;;;;19.15;73.52;101425.75;5069635;28;20056;-61
2023/06/26 04:14:12;;;;;;;18.77;3.38;;;;;;;18.87;74.72;101420.97;5062587;28;20044;-66
2023/06/26 04:16:39;;;;;;;12.80;3.20;;;;;;;18.92;75.30;101422.69;5049318;28;20045;-66
2023/06/26 04:19:07;;;;;;;17.63;3.42;;;;;;;19.03;74.63;101429.41;5060841;28;20060;-65
2023/06/26 04:21:35;;;;;;;13.60;3.10;;;;;;;19.02;74.77;101434.16;5058457;28;20053;-65
2023/06/26 04:24:02;;;;;;;14.30;3.40;;;;;;;19.23;74.04;101430.41;5065777;28;20496;-62
2023/06/26 04:26:30;;;;;;;14.73;3.53;;;;;;;19.14;74.47;101436.13;5066879;28;20041;-63
2023/06/26 04:28:57;;;;;;;12.73;3.00;;;;;;;18.97;74.72;101436.41;5062127;28;20045;-62
2023/06/26 04:31:25;;;;;;;14.50;3.00;;;;;;;19.26;73.04;101438.06;5045568;28;20057;-62
2023/06/26 04:33:54;;;;;;;15.93;3.28;;;;;;;18.85;75.25;101433.63;5060716;28;20056;-63
2023/06/26 04:36:21;;;;;;;18.73;3.55;;;;;;;18.89;74.82;101435.38;5040662;28;20072;-66
2023/06/26 04:38:49;;;;;;;11.25;2.83;;;;;;;18.72;75.53;101446.81;5064022;28;20049;-61
2023/06/26 04:41:17;;;;;;;15.43;3.13;;;;;;;18.52;76.89;101444.94;5071503;28;20597;-65
2023/06/26 04:43:44;;;;;;;14.57;3.55;;;;;;;18.69;76.80;101449.50;5071008;28;20067;-60
2023/06/26 04:46:11;;;;;;;11.70;3.05;;;;;;;19.04;74.94;101444.97;5057243;28;20045;-63
2023/06/26 04:48:39;;;;;;;13.18;3.42;;;;;;;18.99;75.53;101445.22;5056629;28;20435;-62
2023/06/26 04:51:06;;;;;;;18.23;3.28;;;;;;;19.11;74.11;101458.38;5070690;28;20048;-64
2023/06/26 04:53:33;;;;;;;16.70;3.30;;;;;;;19.20;74.35;101448.66;5064975;28;20053;-62
2023/06/26 04:56:01;;;;;;;9.27;2.63;;;;;;;19.42;72.91;101453.75;5064818;28;20609;-65
2023/06/26 04:58:28;;;;;;;17.65;3.25;;;;;;;19.67;71.34;101458.06;5075234;28;20040;-61
2023/06/26 05:00:55;;;;;;;9.95;2.80;;;;;;;19.13;73.85;101450.44;5066678;28;20415;-66
2023/06/26 05:03:23;;;;;;;14.05;2.88;;;;;;;18.84;75.48;101459.94;5053028;28;20060;-65
2023/06/26 05:05:50;;;;;;;13.32;3.00;;;;;;;18.96;75.74;101460.72;5054266;28;20526;-65
2023/06/26 05:08:21;;;;;;;14.98;3.72;;;;;;;19.05;74.36;101463.38;5055847;28;20515;-66
2023/06/26 05:10:49;;;;;;;14.60;2.95;;;;;;;18.89;76.31;101466.09;5062626;28;20066;-66
2023/06/26 05:13:19;;;;;;;17.20;3.90;;;;;;;19.15;75.33;101464.84;5064152;28;20048;-66
2023/06/26 05:15:46;;;;;;;14.98;3.90;;;;;;;18.95;74.77;101472.25;5066499;28;20055;-61
2023/06/26 05:18:14;;;;;;;14.27;3.40;;;;;;;19.13;74.30;101468.00;5051581;28;20049;-61
2023/06/26 05:20:41;;;;;;;16.65;3.75;;;;;;;19.04;74.72;101486.88;5050322;28;20052;-61
2023/06/26 05:23:10;;;;;;;15.60;4.15;;;;;;;18.65;76.61;101479.25;5054538;28;20040;-66
2023/06/26 05:25:38;;;;;;;14.68;3.63;;;;;;;18.98;76.30;101482.72;5056142;28;20048;-67
2023/06/26 05:28:06;;;;;;;15.35;4.70;;;;;;;19.16;75.03;101489.63;5068229;28;20037;-66
2023/06/26 05:30:36;;;;;;;16.38;5.15;;;;;;;18.91;74.89;101488.88;5059446;28;20053;-66
2023/06/26 05:33:05;;;;;;;16.52;4.90;;;;;;;18.63;76.54;101484.34;5065570;28;20052;-65
2023/06/26 05:35:34;;;;;;;13.88;5.97;;;;;;;18.69;75.80;101494.94;5068805;28;20052;-66
2023/06/26 05:38:01;;;;;;;16.00;5.03;;;;;;;18.81;75.13;101494.13;5064449;28;20111;-66
2023/06/26 05:40:29;;;;;;;16.38;5.75;;;;;;;18.92;75.44;101498.88;5063054;28;20064;-66
2023/06/26 05:42:56;;;;;;;14.90;5.57;;;;;;;18.88;75.00;101495.16;5062440;28;20051;-66
2023/06/26 05:45:24;;;;;;;19.08;6.30;;;;;;;19.26;73.91;101491.97;5058713;28;20041;-66
2023/06/26 05:47:51;;;;;;;16.02;6.57;;;;;;;19.15;73.29;101490.81;5065327;28;20045;-65
2023/06/26 05:50:19;;;;;;;16.20;6.90;;;;;;;18.92;73.60;101498.88;5051629;28;20049;-67
2023/06/26 05:52:47;;;;;;;21.55;6.93;;;;;;;18.54;76.62;101492.03;5047099;28;20060;-66
2023/06/26 05:55:15;;;;;;;19.40;7.13;;;;;;;18.79;76.47;101496.47;5058806;28;20071;-66
2023/06/26 05:57:43;;;;;;;18.50;6.95;;;;;;;18.66;76.40;101490.06;5034375;28;20055;-65
2023/06/26 06:00:11;;;;;;;19.08;6.63;;;;;;;19.12;74.21;101488.75;5057420;28;20080;-65
2023/06/26 06:02:42;;;;;;;13.35;6.07;;;;;;;19.22;73.78;101499.41;5063220;28;20059;-65
2023/06/26 06:05:09;;;;;;;13.48;5.50;;;;;;;19.43;71.57;101504.84;5054395;28;20053;-66
2023/06/26 06:07:37;;;;;;;16.77;5.25;;;;;;;18.84;73.60;101497.03;5061296;28;20444;-66
2023/06/26 06:10:05;;;;;;;14.43;4.95;;;;;;;19.02;73.14;101489.22;5063276;28;20496;-66
2023/06/26 06:12:32;;;;;;;15.60;5.18;;;;;;;19.33;72.00;101489.41;5053810;28;20053;-66
2023/06/26 06:14:59;;;;;;;13.57;5.25;;;;;;;18.64;73.84;101497.97;5063463;28;20456;-66
2023/06/26 06:17:27;;;;;;;16.52;5.13;;;;;;;18.56;75.16;101498.91;5067017;28;20044;-65
2023/06/26 06:19:54;;;;;;;17.20;5.22;;;;;;;19.03;73.98;101502.00;5056923;28;20851;-66
2023/06/26 06:22:22;;;;;;;16.40;4.75;;;;;;;19.36;71.79;101497.09;5059487;28;20049;-66
2023/06/26 06:24:50;;;;;;;17.23;3.90;;;;;;;19.37;70.75;101503.50;5064461;28;20067;-66
2023/06/26 06:27:18;;;;;;;12.30;4.65;;;;;;;19.18;71.20;101504.06;5060327;28;20029;-65
2023/06/26 06:29:46;;;;;;;14.93;4.70;;;;;;;18.87;72.66;101509.47;5055876;28;20056;-66
2023/06/26 06:32:13;;;;;;;13.32;4.20;;;;;;;19.16;71.77;101505.59;5064817;28;20717;-67
2023/06/26 06:34:40;;;;;;;11.95;3.95;;;;;;;19.30;71.95;101515.25;5056829;28;20055;-66
2023/06/26 06:37:08;;;;;;;15.63;3.90;;;;;;;19.30;71.47;101528.38;5056251;28;20045;-66
2023/06/26 06:39:35;;;;;;;12.65;3.40;;;;;;;19.23;71.16;101531.75;5058283;28;20052;-66
2023/06/26 06:42:02;;;;;;;16.33;3.75;;;;;;;18.93;72.75;101545.16;5051336;28;20051;-66
2023/06/26 06:44:33;;;;;;;13.18;3.38;;;;;;;18.64;72.08;101539.00;5057947;28;20060;-66
2023/06/26 06:47:00;;;;;;;11.18;3.35;;;;;;;18.66;72.42;101542.25;5054032;28;20432;-66
2023/06/26 06:49:27;;;;;;;11.90;3.30;;;;;;;18.50;72.22;101546.88;5064988;28;20037;-64
2023/06/26 06:51:55;;;;;;;15.35;5.55;;;;;;;18.75;72.41;101541.00;5060812;28;20036;-65
2023/06/26 06:54:26;;;;;;;14.95;3.47;;;;;;;19.03;71.64;101543.91;5070873;28;20051;-65
2023/06/26 06:56:53;;;;;;;12.55;3.53;;;;;;;19.18;71.39;101545.19;5048678;28;20049;-66
2023/06/26 06:59:21;;;;;;;16.52;3.72;;;;;;;20.06;69.85;101552.25;5056093;28;20064;-67
2023/06/26 07:01:48;;;;;;;14.27;3.92;;;;;;;19.08;69.50;101538.91;5057347;28;20037;-67
2023/06/26 07:04:16;;;;;;;11.00;3.65;;;;;;;18.63;71.34;101537.38;5071619;28;20044;-67
2023/06/26 07:06:43;;;;;;;10.82;3.90;;;;;;;18.10;73.14;101549.44;5063644;28;20976;-68
2023/06/26 07:09:10;;;;;;;17.00;4.32;;;;;;;18.34;73.25;101551.50;5053575;28;20048;-68
2023/06/26 07:11:37;;;;;;;14.68;3.70;;;;;;;19.18;70.82;101545.97;5048399;28;20049;-68
2023/06/26 07:14:05;;;;;;;11.05;3.83;;;;;;;20.08;65.08;101546.31;5050327;28;20048;-39
2023/06/26 07:16:32;;;;;;;11.57;3.35;;;;;;;22.32;59.41;101530.41;5052947;28;20385;-41
2023/06/26 07:18:59;;;;;;;13.52;3.78;;;;;;;23.45;53.03;101537.94;5056170;28;20097;-40
2023/06/26 07:21:27;;;;;;;15.02;3.67;;;;;;;22.82;54.93;101532.91;5053003;28;20044;-41
2023/06/26 07:23:54;;;;;;;11.00;3.40;;;;;;;21.61;57.77;101544.16;5049989;28;20385;-40
2023/06/26 07:26:22;;;;;;;9.90;3.10;;;;;;;23.07;54.21;101536.94;5050763;28;20045;-40
2023/06/26 07:29:09;;;;;;;10.48;2.88;;;;;;;24.68;48.27;101539.38;5051534;28;20056;-40
2023/06/26 07:31:36;;;;;;;9.95;3.17;;;;;;;21.49;56.91;101549.91;5049615;28;20048;-40
2023/06/26 07:34:03;;;;;;;12.82;3.00;;;;;;;19.03;65.56;101555.06;5050555;28;20049;-39
2023/06/26 07:36:31;;;;;;;13.38;3.40;;;;;;;18.70;68.08;101565.53;5051131;28;20059;-39
2023/06/26 07:38:58;;;;;;;9.10;3.00;;;;;;;20.57;62.17;101546.88;5052082;28;20412;-43
2023/06/26 07:41:25;;;;;;;12.90;3.05;;;;;;;20.64;59.99;101563.84;5053644;28;20055;-40
2023/06/26 07:43:53;;;;;;;14.40;3.75;;;;;;;21.56;58.20;101550.88;5057852;28;20045;-40
2023/06/26 07:46:20;;;;;;;14.77;3.30;;;;;;;20.85;59.93;101565.19;5049677;28;20057;-40
2023/06/26 07:48:47;;;;;;;14.57;3.08;;;;;;;19.92;63.28;101568.66;5054015;28;20044;-40
2023/06/26 07:51:15;;;;;;;7.90;2.63;;;;;;;21.42;57.89;101566.56;5051917;28;20056;-39
2023/06/26 07:53:43;;;;;;;9.75;3.03;;;;;;;21.42;57.71;101563.78;5057566;28;20598;-40
2023/06/26 07:56:10;;;;;;;8.45;2.50;;;;;;;21.88;55.62;101560.03;5060154;28;20052;-40
2023/06/26 07:58:37;;;;;;;9.57;2.83;;;;;;;22.82;53.42;101558.19;5058364;28;20055;-40
2023/06/26 08:01:05;;;;;;;13.32;3.30;;;;;;;23.31;51.99;101561.84;5056194;28;20049;-42
2023/06/26 08:03:33;;;;;;;11.55;2.85;;;;;;;24.31;49.33;101561.94;5061714;28;20451;-41
2023/06/26 08:06:03;;;;;;;7.77;2.60;;;;;;;24.72;47.95;101557.97;5057055;28;20052;-41
2023/06/26 08:08:30;;;;;;;9.15;2.60;;;;;;;24.36;49.08;101575.66;5056035;28;20049;-40
2023/06/26 08:10:58;;;;;;;10.27;2.75;;;;;;;24.59;49.22;101567.88;5068615;28;20056;-40
2023/06/26 08:13:25;;;;;;;8.95;2.67;;;;;;;25.07;47.45;101566.69;5058784;28;20048;-40
2023/06/26 08:15:52;;;;;;;8.77;2.42;;;;;;;25.31;47.39;101568.91;5057680;28;20064;-40
2023/06/26 08:18:20;;;;;;;10.25;2.95;;;;;;;24.41;46.27;101575.31;5060418;28;20048;-42
2023/06/26 08:20:47;;;;;;;10.50;2.90;;;;;;;24.27;47.48;101577.97;5056840;28;20049;-40
2023/06/26 08:23:14;;;;;;;7.13;2.38;;;;;;;24.80;48.07;101578.56;5058774;28;20523;-40
2023/06/26 08:25:43;;;;;;;9.27;2.88;;;;;;;25.18;46.70;101575.22;5058233;28;20045;-41
2023/06/26 08:28:10;;;;;;;10.50;2.67;;;;;;;24.95;46.39;101569.03;5055850;28;20049;-37
2023/06/26 08:30:38;;;;;;;10.20;2.42;;;;;;;24.59;46.43;101578.31;5056302;28;20049;-37
2023/06/26 08:33:10;;;;;;;10.80;2.58;;;;;;;24.46;47.90;101572.97;5063434;28;20059;-37
2023/06/26 08:35:38;;;;;;;9.82;2.50;;;;;;;25.08;45.73;101568.34;5056216;28;20063;-38
2023/06/26 08:38:05;;;;;;;9.45;2.40;;;;;;;24.39;45.76;101574.91;5055946;28;20056;-37
2023/06/26 08:40:32;;;;;;;9.27;2.50;;;;;;;24.78;46.99;101572.50;5055922;28;20093;-39
2023/06/26 08:42:59;;;;;;;8.65;2.33;;;;;;;24.92;46.37;101559.34;5055383;28;20044;-39
2023/06/26 08:45:28;;;;;;;9.30;2.50;;;;;;;25.34;44.62;101562.47;5041207;28;20053;-37
2023/06/26 08:47:59;;;;;;;10.32;2.40;;;;;;;24.82;45.74;101570.53;5055346;28;20055;-37
2023/06/26 08:50:30;;;;;;;9.48;2.50;;;;;;;24.30;46.75;101566.75;5061146;28;20484;-38
2023/06/26 08:53:04;;;;;;;11.32;2.55;;;;;;;24.81;45.78;101571.72;5059834;28;20045;-39
2023/06/26 08:55:31;;;;;;;14.57;3.00;;;;;;;25.00;44.98;101568.66;5060020;28;20053;-38
2023/06/26 08:58:00;;;;;;;14.00;2.72;;;;;;;25.22;43.86;101557.16;5059821;28;20055;-39
2023/06/26 09:00:27;;;;;;;10.98;2.47;;;;;;;24.45;45.91;101557.28;5066244;28;20404;-38
2023/06/26 09:02:55;;;;;;;9.48;2.35;;;;;;;25.18;44.63;101564.78;5058971;28;20456;-38
2023/06/26 09:05:23;;;;;;;9.25;2.35;;;;;;;25.01;44.60;101565.47;5065794;28;20048;-38
2023/06/26 09:07:51;;;;;;;8.38;2.47;;;;;;;25.58;43.66;101566.66;5062010;28;20060;-41
2023/06/26 09:10:19;;;;;;;17.58;3.08;;;;;;;24.09;43.89;101574.16;5057617;28;20456;-38
2023/06/26 09:12:47;;;;;;;8.65;2.63;;;;;;;24.19;43.90;101570.66;5071847;28;20068;-37
2023/06/26 09:15:15;;;;;;;11.52;2.60;;;;;;;24.75;42.69;101560.00;5056383;28;20400;-38
2023/06/26 09:17:42;;;;;;;9.57;2.70;;;;;;;24.95;42.98;101566.22;5058609;28;20057;-38
2023/06/26 09:20:10;;;;;;;6.47;2.45;;;;;;;25.03;42.54;101570.69;5053577;28;20056;-49
2023/06/26 09:22:40;;;;;;;8.80;2.53;;;;;;;24.92;42.35;101564.97;5057173;28;20407;-38
2023/06/26 09:25:08;;;;;;;9.27;2.13;;;;;;;25.40;42.13;101560.13;5051911;28;20053;-38
2023/06/26 09:27:36;;;;;;;11.88;2.53;;;;;;;25.54;41.83;101555.34;5058517;28;20048;-38
2023/06/26 09:30:04;;;;;;;7.82;2.17;;;;;;;25.33;41.68;101572.13;5055929;28;20037;-38
2023/06/26 09:32:35;;;;;;;9.45;1.90;;;;;;;25.53;41.99;101552.94;5055803;28;20084;-38
2023/06/26 09:35:03;;;;;;;5.65;1.90;;;;;;;25.73;40.21;101559.09;5052319;28;20045;-38
2023/06/26 09:37:31;;;;;;;7.57;1.80;;;;;;;25.22;42.01;101559.16;5055015;28;20056;-38
2023/06/26 09:39:58;;;;;;;6.75;2.55;;;;;;;25.59;41.87;101557.00;5053453;28;20078;-38
2023/06/26 09:42:25;;;;;;;8.80;2.10;;;;;;;25.73;40.76;101561.91;5055481;28;20037;-38
2023/06/26 09:44:54;;;;;;;8.30;2.25;;;;;;;25.81;40.23;101558.72;5059637;28;20048;-38
2023/06/26 09:47:22;;;;;;;5.45;1.90;;;;;;;25.74;40.72;101557.88;5055154;28;20049;-39
2023/06/26 09:49:55;;;;;;;;;;;;;;;24.78;41.43;101572.50;5054119;28;20049;-38
2023/06/26 09:52:26;;;;;;;8.77;2.25;;;;;;;24.30;42.25;101575.19;5052485;28;19921;-38
2023/06/26 09:55:10;;;;;;;8.60;2.40;;;;;;;24.60;41.80;101575.09;5054228;28;20045;-39
2023/06/26 09:57:38;;;;;;;6.75;1.80;;;;;;;24.48;41.62;101569.75;5057430;28;20057;-38
2023/06/26 10:00:08;;;;;;;5.28;1.98;;;;;;;24.99;38.81;101573.50;5054386;28;20045;-38
2023/06/26 10:02:38;;;;;;;8.60;2.05;;;;;;;25.47;39.75;101577.09;5053875;28;20048;-39
2023/06/26 10:05:06;;;;;;;9.05;2.53;;;;;;;24.77;38.89;101577.34;5061349;28;20045;-38
2023/06/26 10:07:34;;;;;;;7.95;2.20;;;;;;;24.80;40.65;101587.81;5061157;28;20058;-41
2023/06/26 10:10:02;;;;;;;7.20;2.10;;;;;;;25.32;39.72;101581.78;5050833;28;20059;-39
2023/06/26 10:12:30;;;;;;;7.03;2.47;;;;;;;25.64;39.25;101573.56;5051003;28;20528;-39
2023/06/26 10:15:00;;;;;;;7.30;2.20;;;;;;;25.74;38.82;101580.44;5059384;28;20079;-42
2023/06/26 10:17:34;;;;;;;8.13;2.22;;;;;;;25.96;38.70;101577.31;5054940;28;20049;-40
2023/06/26 10:20:06;;;;;;;6.80;2.30;;;;;;;25.32;39.45;101576.16;5070817;28;20045;-39
2023/06/26 10:22:40;;;;;;;6.18;2.25;;;;;;;25.38;38.77;101576.63;5050295;28;20060;-40
2023/06/26 10:25:09;;;;;;;7.55;3.13;;;;;;;25.36;39.62;101584.66;5060837;28;20146;-39
2023/06/26 10:27:40;;;;;;;8.27;3.22;;;;;;;24.87;41.80;101573.78;5055886;28;20056;-40
2023/06/26 10:30:16;;;;;;;10.38;4.75;;;;;;;25.68;39.79;101571.56;5050323;28;20036;-40
2023/06/26 10:32:45;;;;;;;11.48;5.15;;;;;;;26.04;42.20;101581.84;5045958;28;20066;-43
2023/06/26 10:35:13;;;;;;;12.80;6.05;;;;;;;25.45;41.75;101569.00;5049596;28;20055;-41
2023/06/26 10:37:41;;;;;;;9.68;4.63;;;;;;;25.29;38.96;101585.41;5050464;28;20056;-39
2023/06/26 10:40:09;;;;;;;9.20;4.68;;;;;;;25.34;43.55;101587.84;5059742;28;20393;-40
2023/06/26 10:42:37;;;;;;;11.02;4.05;;;;;;;25.43;43.01;101576.25;5057996;28;20049;-39
2023/06/26 10:45:15;;;;;;;57.17;12.85;;;;;;;25.80;43.35;101578.88;5052597;28;20048;-39
2023/06/26 10:47:46;;;;;;;47.88;31.80;;;;;;;25.33;38.01;101580.59;5054841;28;20060;-42
2023/06/26 10:50:18;;;;;;;47.47;24.17;;;;;;;24.93;44.41;101583.50;5056515;28;20040;-40
2023/06/26 10:53:20;;;;;;;130.90;69.90;;;;;;;24.65;44.22;101573.97;5056367;28;20048;-38
2023/06/26 10:55:56;;;;;;;37.38;20.27;;;;;;;25.49;38.59;101569.84;5058286;28;20044;-39
2023/06/26 10:58:32;;;;;;;19.38;8.88;;;;;;;24.88;40.45;101580.25;5053424;28;20091;-40
2023/06/26 11:01:15;;;;;;;21.33;11.20;;;;;;;25.36;40.29;101581.81;5054639;28;20480;-39
2023/06/26 11:03:49;;;;;;;18.27;8.60;;;;;;;25.72;39.62;101563.13;5055966;28;20057;-38
2023/06/26 11:06:19;;;;;;;10.68;4.95;;;;;;;25.13;38.60;101562.31;5054636;28;20053;-38
2023/06/26 11:08:53;;;;;;;9.55;4.72;;;;;;;25.26;36.14;101560.00;5053481;28;20056;-38
2023/06/26 11:11:22;;;;;;;7.82;4.15;;;;;;;25.18;34.98;101578.88;5038333;28;20060;-37
2023/06/26 11:13:49;;;;;;;11.02;3.20;;;;;;;24.47;36.53;101583.06;5051567;28;20057;-39
2023/06/26 11:16:16;;;;;;;11.43;5.20;;;;;;;24.83;35.66;101577.75;5058346;28;20044;-37
2023/06/26 11:18:45;;;;;;;8.30;3.95;;;;;;;25.25;36.60;101578.09;5053546;28;20049;-37
2023/06/26 11:21:15;;;;;;;9.52;4.30;;;;;;;25.28;36.30;101583.00;5057131;28;20037;-39
2023/06/26 11:23:45;;;;;;;12.82;4.03;;;;;;;25.42;36.75;101574.63;5044397;28;20048;-40
2023/06/26 11:26:17;;;;;;;11.53;4.60;;;;;;;25.62;35.63;101583.63;5053341;28;20056;-37
2023/06/26 11:28:52;;;;;;;9.27;3.50;;;;;;;25.35;35.66;101589.47;5039752;28;20048;-38